createdAt,value
2024-01-06T00:00:13.664Z,97.05
2024-01-06T00:02:46.631Z,114.03
2024-01-06T00:05:21.800Z,112.93
2024-01-06T00:07:53.587Z,106.55
2024-01-06T00:10:31.658Z,102.63
2024-01-06T00:13:06.193Z,99.30
2024-01-06T00:15:38.819Z,100.43
2024-01-06T00:18:18.717Z,92.27
2024-01-06T00:20:53.732Z,84.68
2024-01-06T00:23:27.945Z,86.50
2024-01-06T00:25:58.160Z,91.72
2024-01-06T00:28:32.286Z,84.63
2024-01-06T00:31:08.796Z,82.97
2024-01-06T00:33:41.266Z,84.70
2024-01-06T00:36:27.070Z,91.32
2024-01-06T00:38:59.633Z,84.03
2024-01-06T00:41:29.209Z,82.72
2024-01-06T00:44:01.773Z,69.32
2024-01-06T00:46:34.453Z,69.25
2024-01-06T00:49:08.314Z,67.73
2024-01-06T00:51:40.764Z,67.63
2024-01-06T00:54:13.944Z,68.32
2024-01-06T00:56:52.319Z,69.68
2024-01-06T00:59:23.325Z,61.63
2024-01-06T01:01:58.774Z,70.45
2024-01-06T01:04:33.931Z,59.55
2024-01-06T01:07:05.896Z,57.03
2024-01-06T01:09:44.179Z,60.13
2024-01-06T01:12:19.817Z,55.40
2024-01-06T01:14:51.989Z,52.25
2024-01-06T01:17:24.541Z,56.28
2024-01-06T01:20:08.068Z,52.45
2024-01-06T01:22:43.756Z,48.20
2024-01-06T01:25:16.309Z,45.83
2024-01-06T01:27:49.076Z,47.25
2024-01-06T01:30:24.036Z,39.42
2024-01-06T01:32:56.672Z,42.80
2024-01-06T01:35:34.256Z,40.50
2024-01-06T01:38:11.524Z,38.80
2024-01-06T01:40:46.214Z,43.30
2024-01-06T01:43:30.075Z,50.40
2024-01-06T01:48:43.225Z,53.17
2024-01-06T01:51:18.814Z,68.97
2024-01-06T01:53:54.185Z,67.78
2024-01-06T01:56:35.743Z,72.00
2024-01-06T01:59:21.025Z,67.13
2024-01-06T02:01:53.962Z,65.40
2024-01-06T02:04:30.842Z,70.22
2024-01-06T02:07:06.004Z,70.55
2024-01-06T02:09:40.528Z,68.40
2024-01-06T02:12:10.043Z,67.60
2024-01-06T02:14:44.433Z,68.53
2024-01-06T02:17:18.091Z,67.13
2024-01-06T02:19:59.046Z,66.25
2024-01-06T02:22:31.404Z,63.22
2024-01-06T02:25:03.795Z,60.70
2024-01-06T02:27:41.252Z,61.50
2024-01-06T02:30:18.994Z,58.15
2024-01-06T02:32:53.763Z,59.00
2024-01-06T02:35:34.432Z,57.00
2024-01-06T02:38:09.702Z,59.80
2024-01-06T02:40:47.187Z,58.67
2024-01-06T02:43:26.009Z,59.72
2024-01-06T02:45:55.874Z,55.58
2024-01-06T02:48:31.331Z,52.03
2024-01-06T02:51:06.122Z,50.25
2024-01-06T02:53:46.680Z,54.40
2024-01-06T02:56:24.986Z,48.42
2024-01-06T02:58:57.617Z,50.20
2024-01-06T03:01:33.280Z,49.53
2024-01-06T03:04:10.815Z,43.85
2024-01-06T03:06:49.402Z,52.47
2024-01-06T03:09:32.897Z,48.90
2024-01-06T03:12:08.444Z,50.03
2024-01-06T03:14:43.883Z,50.22
2024-01-06T03:17:15.989Z,46.53
2024-01-06T03:19:53.233Z,45.55
2024-01-06T03:22:31.206Z,42.30
2024-01-06T03:25:08.049Z,41.28
2024-01-06T03:27:45.603Z,41.97
2024-01-06T03:30:23.770Z,44.17
2024-01-06T03:32:58.308Z,39.00
2024-01-06T03:35:34.473Z,37.17
2024-01-06T03:38:12.759Z,38.55
2024-01-06T03:40:50.627Z,37.47
2024-01-06T03:43:19.820Z,37.90
2024-01-06T03:45:56.843Z,38.03
2024-01-06T03:48:39.054Z,34.40
2024-01-06T03:51:17.384Z,34.95
2024-01-06T03:53:52.700Z,36.90
2024-01-06T03:56:30.768Z,38.30
2024-01-06T03:59:08.936Z,32.75
2024-01-06T04:01:47.077Z,33.35
2024-01-06T04:04:24.886Z,37.08
2024-01-06T04:07:05.210Z,34.00
2024-01-06T04:09:40.883Z,33.35
2024-01-06T04:12:18.633Z,33.03
2024-01-06T04:14:54.294Z,32.13
2024-01-06T04:17:28.178Z,31.98
2024-01-06T04:20:05.259Z,31.95
2024-01-06T04:22:40.343Z,31.42
2024-01-06T04:25:16.238Z,29.80
2024-01-06T04:27:52.512Z,29.23
2024-01-06T04:30:26.514Z,29.83
2024-01-06T04:33:01.895Z,30.58
2024-01-06T04:35:34.292Z,31.42
2024-01-06T04:38:06.337Z,30.88
2024-01-06T04:40:40.802Z,28.33
2024-01-06T04:43:13.839Z,27.92
2024-01-06T04:45:51.546Z,21.58
2024-01-06T04:48:32.190Z,29.88
2024-01-06T04:51:11.063Z,28.13
2024-01-06T04:53:44.322Z,33.40
2024-01-06T04:56:22.356Z,33.00
2024-01-06T04:59:02.154Z,31.65
2024-01-06T05:01:37.619Z,32.78
2024-01-06T05:04:15.605Z,32.17
2024-01-06T05:06:48.460Z,30.35
2024-01-06T05:09:20.826Z,29.00
2024-01-06T05:11:53.837Z,30.52
2024-01-06T05:14:29.976Z,32.25
2024-01-06T05:17:10.403Z,33.28
2024-01-06T05:19:41.677Z,29.85
2024-01-06T05:22:16.437Z,30.52
2024-01-06T05:24:54.692Z,31.38
2024-01-06T05:27:35.904Z,30.95
2024-01-06T05:30:12.430Z,32.90
2024-01-06T05:32:47.816Z,30.05
2024-01-06T05:35:25.326Z,29.42
2024-01-06T05:38:04.473Z,29.40
2024-01-06T05:40:39.375Z,30.85
2024-01-06T05:43:16.837Z,31.85
2024-01-06T05:45:52.581Z,32.67
2024-01-06T05:48:27.631Z,32.85
2024-01-06T05:51:02.440Z,31.27
2024-01-06T05:53:40.277Z,29.63
2024-01-06T05:56:17.268Z,31.83
2024-01-06T05:58:51.261Z,32.35
2024-01-06T06:01:26.339Z,33.25
2024-01-06T06:04:03.177Z,28.42
2024-01-06T06:06:42.021Z,26.20
2024-01-06T06:09:22.266Z,26.67
2024-01-06T06:11:54.597Z,26.85
2024-01-06T06:14:30.607Z,29.80
2024-01-06T06:17:05.433Z,29.00
2024-01-06T06:19:40.202Z,28.05
2024-01-06T06:22:19.281Z,29.65
2024-01-06T06:24:56.935Z,26.83
2024-01-06T06:27:28.818Z,28.88
2024-01-06T06:30:06.068Z,28.13
2024-01-06T06:32:43.721Z,28.55
2024-01-06T06:35:21.613Z,27.42
2024-01-06T06:37:57.109Z,28.35
2024-01-06T06:40:32.235Z,29.38
2024-01-06T06:43:10.140Z,30.73
2024-01-06T06:45:53.990Z,32.15
2024-01-06T06:48:29.432Z,34.10
2024-01-06T06:51:01.538Z,35.25
2024-01-06T06:53:36.247Z,38.65
2024-01-06T06:56:10.179Z,36.63
2024-01-06T06:58:39.869Z,38.58
2024-01-06T07:01:22.832Z,40.42
2024-01-06T07:04:06.352Z,30.00
2024-01-06T07:06:44.573Z,38.90
2024-01-06T07:09:23.343Z,45.25
2024-01-06T07:12:01.707Z,49.40
2024-01-06T07:14:36.335Z,44.92
2024-01-06T07:17:13.188Z,49.88
2024-01-06T07:19:46.132Z,52.70
2024-01-06T07:22:28.830Z,55.13
2024-01-06T07:25:06.669Z,50.85
2024-01-06T07:27:47.301Z,55.83
2024-01-06T07:30:28.556Z,59.13
2024-01-06T07:33:06.085Z,58.15
2024-01-06T07:35:44.529Z,57.13
2024-01-06T07:38:20.734Z,59.67
2024-01-06T07:40:55.892Z,61.78
2024-01-06T07:43:30.804Z,59.60
2024-01-06T07:46:08.330Z,52.13
2024-01-06T07:48:40.320Z,57.58
2024-01-06T07:51:13.885Z,56.63
2024-01-06T07:53:59.687Z,55.38
2024-01-06T07:56:34.959Z,59.83
2024-01-06T07:59:13.805Z,62.55
2024-01-06T08:01:50.887Z,64.70
2024-01-06T08:04:24.086Z,64.50
2024-01-06T08:07:01.917Z,65.60
2024-01-06T08:09:41.873Z,71.70
2024-01-06T08:12:16.837Z,69.03
2024-01-06T08:14:49.414Z,68.47
2024-01-06T08:17:29.973Z,66.00
2024-01-06T08:20:04.474Z,78.82
2024-01-06T08:22:39.480Z,70.55
2024-01-06T08:25:17.281Z,58.92
2024-01-06T08:27:50.329Z,54.35
2024-01-06T08:30:25.318Z,46.80
2024-01-06T08:33:01.090Z,50.85
2024-01-06T08:35:41.339Z,48.05
2024-01-06T08:38:19.815Z,52.90
2024-01-06T08:40:56.840Z,47.85
2024-01-06T08:43:32.648Z,47.45
2024-01-06T08:46:08.673Z,42.97
2024-01-06T08:48:46.563Z,47.38
2024-01-06T08:51:21.626Z,54.88
2024-01-06T08:53:56.105Z,50.65
2024-01-06T08:56:32.541Z,55.88
2024-01-06T08:59:07.694Z,51.38
2024-01-06T09:01:42.104Z,46.95
2024-01-06T09:04:18.616Z,46.35
2024-01-06T09:06:53.860Z,40.67
2024-01-06T09:09:29.576Z,40.95
2024-01-06T09:12:01.718Z,51.95
2024-01-06T09:14:39.183Z,46.38
2024-01-06T09:17:13.827Z,45.25
2024-01-06T09:19:54.635Z,47.22
2024-01-06T09:22:29.591Z,43.25
2024-01-06T09:25:03.933Z,41.80
2024-01-06T09:27:39.371Z,49.67
2024-01-06T09:30:20.258Z,65.60
2024-01-06T09:33:00.760Z,61.40
2024-01-06T09:35:36.028Z,58.20
2024-01-06T09:38:14.594Z,54.13
2024-01-06T09:40:52.715Z,45.08
2024-01-06T09:43:31.271Z,46.97
2024-01-06T09:46:14.655Z,44.55
2024-01-06T09:48:51.820Z,43.28
2024-01-06T09:51:21.777Z,44.65
2024-01-06T09:54:17.413Z,41.92
2024-01-06T09:56:48.461Z,39.15
2024-01-06T09:59:28.594Z,42.10
2024-01-06T10:02:01.698Z,36.55
2024-01-06T10:04:37.426Z,42.47
2024-01-06T10:07:14.500Z,37.53
2024-01-06T10:09:49.468Z,41.22
2024-01-06T10:12:33.058Z,39.53
2024-01-06T10:15:10.757Z,40.42
2024-01-06T10:17:44.056Z,39.95
2024-01-06T10:20:21.917Z,38.10
2024-01-06T10:22:55.411Z,42.50
2024-01-06T10:25:30.765Z,38.78
2024-01-06T10:28:08.244Z,40.38
2024-01-06T10:30:41.782Z,39.70
2024-01-06T10:33:20.340Z,39.60
2024-01-06T10:36:04.331Z,33.20
2024-01-06T10:41:19.160Z,35.17
2024-01-06T10:43:52.468Z,32.30
2024-01-06T10:46:27.139Z,37.97
2024-01-06T10:49:09.759Z,36.30
2024-01-06T10:51:47.826Z,32.80
2024-01-06T10:54:27.265Z,29.15
2024-01-06T10:57:07.460Z,32.17
2024-01-06T10:59:44.490Z,41.53
2024-01-06T11:02:26.432Z,40.15
2024-01-06T11:05:09.051Z,45.03
2024-01-06T11:07:48.526Z,36.22
2024-01-06T11:10:24.325Z,37.53
2024-01-06T11:13:22.102Z,36.50
2024-01-06T11:16:00.399Z,38.88
2024-01-06T11:18:47.762Z,36.63
2024-01-06T11:21:37.302Z,45.90
2024-01-06T11:24:27.933Z,46.80
2024-01-06T11:27:09.008Z,44.78
2024-01-06T11:29:45.738Z,44.67
2024-01-06T11:32:36.519Z,45.92
2024-01-06T11:35:22.971Z,46.90
2024-01-06T11:38:02.438Z,50.05
2024-01-06T11:40:43.470Z,45.90
2024-01-06T11:43:32.837Z,48.15
2024-01-06T11:46:17.799Z,50.88
2024-01-06T11:48:59.156Z,51.08
2024-01-06T11:51:31.905Z,47.22
2024-01-06T11:54:08.427Z,53.30
2024-01-06T11:56:49.977Z,56.15
2024-01-06T11:59:25.797Z,57.75
2024-01-06T12:02:10.351Z,78.60
2024-01-06T12:04:54.283Z,56.60
2024-01-06T12:07:32.704Z,51.00
2024-01-06T12:10:21.362Z,49.53
2024-01-06T12:13:13.765Z,53.33
2024-01-06T12:15:56.835Z,48.95
2024-01-06T12:18:39.421Z,50.47
2024-01-06T12:21:25.863Z,63.50
2024-01-06T12:24:21.477Z,62.33
2024-01-06T12:27:01.156Z,92.10
2024-01-06T12:29:47.529Z,75.60
2024-01-06T12:32:28.277Z,76.53
2024-01-06T12:35:11.203Z,65.97
2024-01-06T12:37:46.482Z,57.70
2024-01-06T12:40:23.991Z,65.03
2024-01-06T12:43:14.897Z,58.00
2024-01-06T12:45:55.569Z,56.45
2024-01-06T12:48:34.401Z,59.88
2024-01-06T12:51:15.220Z,60.67
2024-01-06T12:53:56.786Z,57.38
2024-01-06T12:56:34.481Z,65.88
2024-01-06T12:59:10.601Z,59.55
2024-01-06T13:01:55.045Z,58.40
2024-01-06T13:04:33.384Z,64.22
2024-01-06T13:07:06.347Z,65.03
2024-01-06T13:09:46.929Z,62.67
2024-01-06T13:12:25.163Z,60.03
2024-01-06T13:15:07.326Z,62.78
2024-01-06T13:17:50.627Z,60.08
2024-01-06T13:20:29.316Z,60.35
2024-01-06T13:23:13.916Z,64.75
2024-01-06T13:25:47.846Z,59.72
2024-01-06T13:28:26.163Z,70.97
2024-01-06T13:31:06.821Z,66.55
2024-01-06T13:33:43.442Z,70.38
2024-01-06T13:36:24.951Z,59.60
2024-01-06T13:39:05.556Z,65.90
2024-01-06T13:41:46.172Z,71.65
2024-01-06T13:44:28.106Z,65.65
2024-01-06T13:47:19.387Z,64.88
2024-01-06T13:49:57.326Z,65.35
2024-01-06T13:52:36.595Z,64.85
2024-01-06T13:55:23.760Z,68.80
2024-01-06T13:58:01.218Z,74.00
2024-01-06T14:00:49.183Z,70.30
2024-01-06T14:03:32.699Z,70.47
2024-01-06T14:06:15.927Z,62.92
2024-01-06T14:08:55.059Z,61.72
2024-01-06T14:11:38.237Z,67.40
2024-01-06T14:14:18.949Z,66.18
2024-01-06T14:17:05.004Z,64.13
2024-01-06T14:19:48.102Z,58.33
2024-01-06T14:22:32.197Z,58.60
2024-01-06T14:25:18.700Z,58.53
2024-01-06T14:28:01.548Z,62.55
2024-01-06T14:30:39.883Z,66.97
2024-01-06T14:33:23.843Z,80.43
2024-01-06T14:36:04.454Z,76.18
2024-01-06T14:38:53.731Z,80.03
2024-01-06T14:41:27.998Z,77.93
2024-01-06T14:44:11.613Z,78.72
2024-01-06T14:46:55.789Z,74.90
2024-01-06T14:49:31.266Z,74.38
2024-01-06T14:52:15.536Z,64.30
2024-01-06T14:54:52.241Z,66.85
2024-01-06T14:57:30.612Z,65.18
2024-01-06T15:00:17.004Z,64.80
2024-01-06T15:02:58.435Z,60.22
2024-01-06T15:05:40.392Z,59.38
2024-01-06T15:08:19.705Z,58.15
2024-01-06T15:11:00.337Z,58.08
2024-01-06T15:13:40.889Z,85.00
2024-01-06T15:16:29.996Z,90.60
2024-01-06T15:19:08.281Z,63.05
2024-01-06T15:21:51.209Z,62.40
2024-01-06T15:24:31.950Z,59.80
2024-01-06T15:27:08.562Z,56.55
2024-01-06T15:29:47.460Z,64.55
2024-01-06T15:32:29.279Z,68.03
2024-01-06T15:35:08.112Z,58.25
2024-01-06T15:37:48.770Z,63.97
2024-01-06T15:40:26.637Z,61.40
2024-01-06T15:43:06.798Z,67.55
2024-01-06T15:45:48.271Z,58.40
2024-01-06T15:48:26.204Z,59.25
2024-01-06T15:51:00.055Z,60.03
2024-01-06T15:56:23.086Z,56.03
2024-01-06T15:59:01.298Z,59.75
2024-01-06T16:01:41.525Z,62.47
2024-01-06T16:04:24.770Z,59.45
2024-01-06T16:07:20.798Z,58.78
2024-01-06T16:09:58.166Z,61.90
2024-01-06T16:12:46.324Z,57.53
2024-01-06T16:15:25.543Z,62.78
2024-01-06T16:18:15.297Z,58.70
2024-01-06T16:20:55.330Z,63.58
2024-01-06T16:23:42.048Z,62.55
2024-01-06T16:26:22.889Z,64.30
2024-01-06T16:29:05.761Z,56.83
2024-01-06T16:31:43.669Z,58.80
2024-01-06T16:34:32.516Z,61.95
2024-01-06T16:37:10.290Z,55.75
2024-01-06T16:39:50.609Z,56.58
2024-01-06T16:42:40.958Z,67.38
2024-01-06T16:45:23.391Z,70.13
2024-01-06T16:48:03.572Z,79.32
2024-01-06T16:50:49.809Z,74.82
2024-01-06T16:56:14.239Z,63.70
2024-01-06T16:58:53.267Z,66.28
2024-01-06T17:01:42.540Z,74.30
2024-01-06T17:04:20.999Z,70.47
2024-01-06T17:07:01.167Z,66.65
2024-01-06T17:09:42.569Z,67.15
2024-01-06T17:12:24.377Z,68.50
2024-01-06T17:15:08.080Z,63.30
2024-01-06T17:17:47.714Z,74.80
2024-01-06T17:20:41.306Z,68.68
2024-01-06T17:23:21.860Z,72.40
2024-01-06T17:26:00.696Z,75.30
2024-01-06T17:28:48.696Z,72.88
2024-01-06T17:31:32.581Z,76.15
2024-01-06T17:34:16.771Z,74.97
2024-01-06T17:36:58.227Z,87.47
2024-01-06T17:39:35.015Z,86.93
2024-01-06T17:42:11.303Z,84.80
2024-01-06T17:44:55.281Z,87.22
2024-01-06T17:47:51.718Z,86.20
2024-01-06T17:50:35.828Z,82.28
2024-01-06T17:53:11.511Z,82.20
2024-01-06T17:55:53.409Z,81.75
2024-01-06T17:58:40.298Z,87.25
2024-01-06T18:01:27.592Z,79.47
2024-01-06T18:04:03.341Z,82.40
2024-01-06T18:06:44.970Z,78.07
2024-01-06T18:09:35.009Z,80.60
2024-01-06T18:12:14.589Z,86.00
2024-01-06T18:14:56.048Z,87.75
2024-01-06T18:17:44.680Z,79.32
2024-01-06T18:20:24.440Z,80.05
2024-01-06T18:23:12.370Z,82.70
2024-01-06T18:25:50.275Z,82.70
2024-01-06T18:28:29.125Z,86.05
2024-01-06T18:31:04.780Z,83.72
2024-01-06T18:33:45.985Z,73.65
2024-01-06T18:36:23.642Z,79.25
2024-01-06T18:39:09.762Z,81.90
2024-01-06T18:41:59.539Z,74.50
2024-01-06T18:44:37.312Z,82.05
2024-01-06T18:47:18.638Z,87.55
2024-01-06T18:49:59.101Z,85.20
2024-01-06T18:52:37.029Z,76.65
2024-01-06T18:55:20.914Z,79.50
2024-01-06T19:00:47.289Z,66.13
2024-01-06T19:03:31.633Z,64.65
2024-01-06T19:06:11.872Z,73.82
2024-01-06T19:08:56.359Z,75.95
2024-01-06T19:11:34.051Z,79.45
2024-01-06T19:14:16.869Z,72.78
2024-01-06T19:16:57.704Z,81.20
2024-01-06T19:19:36.126Z,75.65
2024-01-06T19:22:24.024Z,66.32
2024-01-06T19:25:05.309Z,68.32
2024-01-06T19:27:46.053Z,83.20
2024-01-06T19:30:21.427Z,79.88
2024-01-06T19:32:56.301Z,71.30
2024-01-06T19:35:33.046Z,77.93
2024-01-06T19:38:12.274Z,79.90
2024-01-06T19:40:58.444Z,83.53
2024-01-06T19:43:37.172Z,84.32
2024-01-06T19:46:15.026Z,85.15
2024-01-06T19:48:52.868Z,82.80
2024-01-06T19:51:32.607Z,79.85
2024-01-06T19:54:15.049Z,89.47
2024-01-06T19:57:02.273Z,77.93
2024-01-06T19:59:43.976Z,80.75
2024-01-06T20:02:21.440Z,81.93
2024-01-06T20:05:05.041Z,81.93
2024-01-06T20:07:41.016Z,80.43
2024-01-06T20:10:23.146Z,85.32
2024-01-06T20:12:58.968Z,87.47
2024-01-06T20:15:48.355Z,83.80
2024-01-06T20:18:31.570Z,79.85
2024-01-06T20:21:21.901Z,78.18
2024-01-06T20:23:58.430Z,77.10
2024-01-06T20:26:39.056Z,81.72
2024-01-06T20:29:21.872Z,83.95
2024-01-06T20:31:57.437Z,82.80
2024-01-06T20:34:41.567Z,86.47
2024-01-06T20:37:23.688Z,78.78
2024-01-06T20:39:58.770Z,89.13
2024-01-06T20:42:39.759Z,82.95
2024-01-06T20:45:23.537Z,86.75
2024-01-06T20:50:35.411Z,66.05
2024-01-06T20:53:24.598Z,72.43
2024-01-06T20:56:07.652Z,69.03
2024-01-06T20:58:46.581Z,70.63
2024-01-06T21:01:24.415Z,78.93
2024-01-06T21:04:06.196Z,76.40
2024-01-06T21:06:44.366Z,83.88
2024-01-06T21:09:25.002Z,85.03
2024-01-06T21:12:03.150Z,75.30
2024-01-06T21:14:43.433Z,73.93
2024-01-06T21:17:30.038Z,66.88
2024-01-06T21:20:11.374Z,76.05
2024-01-06T21:22:50.049Z,77.10
2024-01-06T21:25:32.599Z,83.10
2024-01-06T21:28:10.494Z,89.30
2024-01-06T21:30:50.068Z,82.90
2024-01-06T21:33:33.169Z,85.03
2024-01-06T21:36:09.160Z,84.03
2024-01-06T21:38:47.666Z,81.60
2024-01-06T21:41:29.912Z,84.03
2024-01-06T21:44:15.482Z,76.88
2024-01-06T21:46:54.134Z,74.15
2024-01-06T21:49:47.303Z,81.18
2024-01-06T21:52:28.687Z,85.57
2024-01-06T21:55:11.439Z,82.85
2024-01-06T21:57:49.002Z,85.75
2024-01-06T22:00:28.892Z,74.93
2024-01-06T22:03:10.098Z,77.75
2024-01-06T22:05:48.844Z,96.10
2024-01-06T22:08:35.947Z,93.93
2024-01-06T22:11:16.927Z,88.80
2024-01-06T22:14:02.082Z,100.97
2024-01-06T22:16:43.669Z,109.05
2024-01-06T22:19:24.351Z,122.43
2024-01-06T22:22:10.997Z,119.72
2024-01-06T22:24:53.470Z,122.20
2024-01-06T22:27:37.242Z,114.80
2024-01-06T22:30:18.385Z,109.22
2024-01-06T22:32:58.501Z,110.05
2024-01-06T22:35:41.886Z,109.40
2024-01-06T22:38:26.554Z,103.33
2024-01-06T22:41:10.156Z,105.75
2024-01-06T22:43:54.164Z,104.25
2024-01-06T22:46:38.623Z,90.97
2024-01-06T22:49:17.992Z,88.03
2024-01-06T22:52:03.037Z,78.85
2024-01-06T22:54:46.201Z,56.42
2024-01-06T22:57:30.303Z,85.00
2024-01-06T23:00:15.597Z,78.97
2024-01-06T23:02:53.900Z,73.25
2024-01-06T23:05:34.366Z,73.05
2024-01-06T23:08:12.091Z,74.72
2024-01-06T23:10:47.577Z,75.50
2024-01-06T23:13:28.092Z,83.28
2024-01-06T23:16:07.482Z,80.60
2024-01-06T23:18:49.455Z,70.72
2024-01-06T23:21:35.337Z,74.50
2024-01-06T23:24:22.261Z,82.78
2024-01-06T23:27:03.512Z,78.82
2024-01-06T23:29:46.412Z,81.32
2024-01-06T23:32:26.580Z,79.82
2024-01-06T23:35:06.384Z,79.97
2024-01-06T23:37:45.271Z,86.50
2024-01-06T23:40:23.668Z,95.85
2024-01-06T23:43:02.188Z,72.43
2024-01-06T23:45:40.517Z,66.10
2024-01-06T23:48:17.995Z,61.67
2024-01-06T23:50:55.679Z,69.70
2024-01-06T23:53:38.680Z,67.32
2024-01-06T23:56:14.316Z,61.38
2024-01-06T23:58:49.712Z,54.67
